Time;durP1;ratioP1;P1;durP2;ratioP2;P2;SDS_P1;SDS_P2;PMS_P1;PMS_P2;Temp;Humidity;BMP_temperature;BMP_pressure;BME280_temperature;BME280_humidity;BME280_pressure;Samples;Min_cycle;Max_cycle;Signal;HPM_P1;HPM_P2
2022/11/24 00:00:42;;;;;;;88.05;44.42;;;1.10;99.90;;;;;;2060781;28;20054;-69
2022/11/24 00:01:43;;;;;;;83.00;43.38;;;1.10;99.90;;;;;;2059295;28;20036;-69
2022/11/24 00:02:44;;;;;;;88.28;43.20;;;1.10;99.90;;;;;;2052892;28;20038;-69
2022/11/24 00:03:52;;;;;;;79.47;40.20;;;1.10;99.90;;;;;;2062217;28;20176;-70
2022/11/24 00:04:52;;;;;;;79.90;39.90;;;1.00;99.90;;;;;;2062078;28;20034;-69
2022/11/24 00:05:53;;;;;;;78.28;38.97;;;1.00;99.90;;;;;;2060739;28;20081;-69
2022/11/24 00:06:54;;;;;;;80.68;40.30;;;1.00;99.90;;;;;;2063299;28;20034;-69
2022/11/24 00:07:54;;;;;;;80.32;40.15;;;1.00;99.90;;;;;;2061307;28;20026;-69
2022/11/24 00:08:55;;;;;;;82.70;40.78;;;1.00;99.90;;;;;;2059191;28;20441;-69
2022/11/24 00:09:56;;;;;;;79.20;39.22;;;1.00;99.90;;;;;;2061245;28;20019;-69
2022/11/24 00:11:02;;;;;;;80.32;39.88;;;1.00;99.90;;;;;;2059599;28;20362;-70
2022/11/24 00:12:03;;;;;;;77.38;37.75;;;1.00;99.90;;;;;;2060672;28;20595;-69
2022/11/24 00:13:04;;;;;;;77.95;38.03;;;1.00;99.90;;;;;;2059194;28;20102;-70
2022/11/24 00:14:05;;;;;;;72.53;36.55;;;1.00;99.90;;;;;;2060325;28;20031;-70
2022/11/24 00:15:06;;;;;;;73.75;36.30;;;1.00;99.90;;;;;;2059125;28;20113;-69
2022/11/24 00:16:15;;;;;;;73.68;36.67;;;0.90;99.90;;;;;;2061148;28;20097;-70
2022/11/24 00:17:16;;;;;;;71.28;35.65;;;0.90;99.90;;;;;;2058502;28;20027;-69
2022/11/24 00:18:17;;;;;;;68.13;35.05;;;0.90;99.90;;;;;;2060040;28;20504;-69
2022/11/24 00:19:17;;;;;;;68.93;35.03;;;0.90;99.90;;;;;;2058960;28;20054;-69
2022/11/24 00:20:18;;;;;;;68.43;34.85;;;0.90;99.90;;;;;;2060146;28;20069;-69
2022/11/24 00:21:19;;;;;;;72.00;34.00;;;0.90;99.90;;;;;;2059719;28;20421;-69
2022/11/24 00:22:20;;;;;;;70.25;34.83;;;0.90;99.90;;;;;;2056542;28;20412;-69
2022/11/24 00:23:21;;;;;;;73.38;34.33;;;0.90;99.90;;;;;;2055355;28;20106;-69
2022/11/24 00:24:21;;;;;;;70.55;34.05;;;0.90;99.90;;;;;;2055363;28;20038;-69
2022/11/24 00:25:22;;;;;;;68.20;33.80;;;0.90;99.90;;;;;;2055634;28;20129;-69
2022/11/24 00:26:25;;;;;;;70.97;34.20;;;0.90;99.90;;;;;;2056365;28;20144;-70
2022/11/24 00:27:26;;;;;;;73.82;34.80;;;0.90;99.90;;;;;;2055736;28;20035;-69
2022/11/24 00:28:27;;;;;;;73.28;35.25;;;0.90;99.90;;;;;;2055611;28;20346;-69
2022/11/24 00:29:27;;;;;;;70.45;34.63;;;0.90;99.90;;;;;;2057239;28;20019;-70
2022/11/24 00:30:28;;;;;;;70.72;34.78;;;0.90;99.90;;;;;;2056226;28;20035;-70
2022/11/24 00:31:32;;;;;;;75.32;36.80;;;0.90;99.90;;;;;;2056188;28;20076;-70
2022/11/24 00:32:33;;;;;;;76.13;36.72;;;0.90;99.90;;;;;;2056416;28;20611;-70
2022/11/24 00:33:34;;;;;;;73.55;34.90;;;0.90;99.90;;;;;;2056418;28;20027;-70
2022/11/24 00:34:34;;;;;;;73.32;35.75;;;0.80;99.90;;;;;;2056217;28;20469;-70
2022/11/24 00:35:36;;;;;;;71.78;35.78;;;0.80;99.90;;;;;;2055977;28;20122;-69
2022/11/24 00:36:37;;;;;;;75.25;36.85;;;0.80;99.90;;;;;;2055939;28;20470;-69
2022/11/24 00:37:38;;;;;;;75.65;36.40;;;0.80;99.90;;;;;;2055936;28;20049;-69
2022/11/24 00:38:39;;;;;;;73.13;35.63;;;0.80;99.90;;;;;;2055755;28;20034;-70
2022/11/24 00:39:40;;;;;;;77.18;36.60;;;0.80;99.90;;;;;;2055431;28;20524;-70
2022/11/24 00:40:41;;;;;;;70.15;35.53;;;0.80;99.90;;;;;;2048049;28;20375;-69
2022/11/24 00:41:42;;;;;;;72.20;34.85;;;0.70;99.90;;;;;;2055698;28;20041;-70
2022/11/24 00:42:43;;;;;;;74.25;35.55;;;0.80;99.90;;;;;;2056725;28;20794;-69
2022/11/24 00:43:44;;;;;;;75.18;36.20;;;0.70;99.90;;;;;;2056311;28;20034;-69
2022/11/24 00:44:44;;;;;;;76.18;36.80;;;0.70;99.90;;;;;;2055436;28;20031;-70
2022/11/24 00:45:45;;;;;;;73.32;35.70;;;0.70;99.90;;;;;;2055623;28;20763;-69
2022/11/24 00:46:46;;;;;;;74.72;35.90;;;0.70;99.90;;;;;;2056484;28;20045;-69
2022/11/24 00:47:47;;;;;;;71.70;35.88;;;0.70;99.90;;;;;;2056909;28;20509;-69
2022/11/24 00:48:48;;;;;;;72.43;35.42;;;0.70;99.90;;;;;;2055280;28;20039;-69
2022/11/24 00:49:48;;;;;;;76.28;37.33;;;0.70;99.90;;;;;;2055411;28;20798;-69
2022/11/24 00:51:01;;;;;;;75.28;37.88;;;0.70;99.90;;;;;;2056077;28;20496;-69
2022/11/24 00:52:01;;;;;;;79.75;39.40;;;0.70;99.90;;;;;;2056174;28;20129;-69
2022/11/24 00:53:02;;;;;;;83.55;41.00;;;0.70;99.90;;;;;;2055322;28;20019;-69
2022/11/24 00:54:03;;;;;;;84.80;41.88;;;0.70;99.90;;;;;;2055001;28;20035;-69
2022/11/24 00:55:04;;;;;;;89.75;43.92;;;0.70;99.90;;;;;;2048459;28;20035;-69
2022/11/24 00:56:05;;;;;;;87.20;41.38;;;0.70;99.90;;;;;;2047302;29;20105;-69
2022/11/24 00:57:06;;;;;;;82.13;39.42;;;0.70;99.90;;;;;;2047601;28;20743;-69
2022/11/24 00:58:07;;;;;;;79.60;37.83;;;0.70;99.90;;;;;;2047449;28;20047;-69
2022/11/24 00:59:07;;;;;;;72.18;35.97;;;0.70;99.90;;;;;;2046794;29;20033;-69
2022/11/24 01:00:08;;;;;;;74.70;35.30;;;0.70;99.90;;;;;;2048271;28;20042;-69
2022/11/24 01:01:14;;;;;;;73.68;34.90;;;0.70;99.90;;;;;;2048014;28;20444;-69
2022/11/24 01:02:14;;;;;;;71.40;34.08;;;0.60;99.90;;;;;;2047540;28;20027;-69
2022/11/24 01:03:16;;;;;;;75.97;35.60;;;0.60;99.90;;;;;;2047351;28;20489;-69
2022/11/24 01:04:17;;;;;;;76.45;36.03;;;0.60;99.90;;;;;;2046902;28;20126;-69
2022/11/24 01:05:17;;;;;;;89.95;37.83;;;0.60;99.90;;;;;;2047414;28;20050;-68
2022/11/24 01:06:22;;;;;;;89.75;39.72;;;0.60;99.90;;;;;;2047301;28;20036;-70
2022/11/24 01:07:23;;;;;;;97.00;41.15;;;0.60;99.90;;;;;;2047760;28;20039;-69
2022/11/24 01:08:23;;;;;;;96.10;40.20;;;0.60;99.90;;;;;;2055365;28;20089;-70
2022/11/24 01:09:24;;;;;;;93.65;39.42;;;0.60;99.90;;;;;;2047609;28;20031;-70
2022/11/24 01:10:25;;;;;;;95.85;40.45;;;0.60;99.90;;;;;;2047955;28;20049;-70
2022/11/24 01:12:53;;;;;;;102.15;41.15;;;0.50;99.90;;;;;;2048258;28;20094;-70
2022/11/24 01:13:56;;;;;;;107.65;43.10;;;0.50;99.90;;;;;;2047783;29;20077;-70
2022/11/24 01:14:58;;;;;;;115.32;44.38;;;0.50;99.90;;;;;;2047669;28;20039;-70
2022/11/24 01:15:58;;;;;;;125.82;46.15;;;0.50;99.90;;;;;;2047842;28;20043;-70
2022/11/24 01:16:59;;;;;;;139.02;48.75;;;0.50;99.90;;;;;;2047879;28;20116;-70
2022/11/24 01:18:00;;;;;;;150.70;51.28;;;0.50;99.90;;;;;;2047147;29;20031;-70
2022/11/24 01:19:02;;;;;;;143.13;50.05;;;0.50;99.90;;;;;;2046709;29;20023;-70
2022/11/24 01:20:03;;;;;;;155.40;53.28;;;0.50;99.90;;;;;;2047663;28;20122;-70
2022/11/24 01:21:04;;;;;;;159.80;54.67;;;0.50;99.90;;;;;;2047679;28;20048;-69
2022/11/24 01:22:05;;;;;;;151.23;52.40;;;0.50;99.90;;;;;;2047684;28;20023;-70
2022/11/24 01:23:05;;;;;;;141.05;51.00;;;0.50;99.90;;;;;;2047732;29;20774;-69
2022/11/24 01:24:06;;;;;;;143.80;51.47;;;0.50;99.90;;;;;;2046941;29;20106;-69
2022/11/24 01:25:09;;;;;;;142.15;51.33;;;0.50;99.90;;;;;;2047263;28;20019;-69
2022/11/24 01:26:14;;;;;;;141.27;50.70;;;0.50;99.90;;;;;;2047964;29;20459;-69
2022/11/24 01:27:14;;;;;;;138.07;49.90;;;0.50;99.90;;;;;;2047030;28;20039;-69
2022/11/24 01:28:15;;;;;;;132.25;49.63;;;0.50;99.90;;;;;;2047168;29;20035;-69
2022/11/24 01:29:16;;;;;;;125.88;47.72;;;0.50;99.90;;;;;;2048051;28;20401;-70
2022/11/24 01:30:16;;;;;;;123.30;47.42;;;0.50;99.90;;;;;;2050177;28;20051;-70
2022/11/24 01:31:17;;;;;;;114.00;45.47;;;0.50;99.90;;;;;;2048480;29;20525;-70
2022/11/24 01:32:18;;;;;;;107.68;45.05;;;0.50;99.90;;;;;;2047933;28;20521;-70
2022/11/24 01:33:18;;;;;;;105.95;43.22;;;0.50;99.90;;;;;;2047061;28;20038;-70
2022/11/24 01:34:19;;;;;;;102.00;42.47;;;0.50;99.90;;;;;;2046898;29;20031;-70
2022/11/24 01:35:20;;;;;;;95.72;40.95;;;0.50;99.90;;;;;;2047572;28;20118;-70
2022/11/24 01:36:21;;;;;;;90.43;40.05;;;0.50;99.90;;;;;;2047810;29;20121;-70
2022/11/24 01:37:22;;;;;;;86.18;39.65;;;0.50;99.90;;;;;;2047893;29;20490;-70
2022/11/24 01:38:24;;;;;;;80.55;37.55;;;0.50;99.90;;;;;;2047647;29;20051;-70
2022/11/24 01:39:25;;;;;;;77.70;36.15;;;0.50;99.90;;;;;;2054640;28;20106;-70
2022/11/24 01:40:25;;;;;;;75.35;35.47;;;0.50;99.90;;;;;;2055128;28;20460;-70
2022/11/24 01:41:26;;;;;;;75.30;35.30;;;0.40;99.90;;;;;;2046641;28;20446;-70
2022/11/24 01:42:38;;;;;;;69.55;33.70;;;0.40;99.90;;;;;;2047112;29;20150;-70
2022/11/24 01:43:40;;;;;;;68.35;33.03;;;0.40;99.90;;;;;;2054900;28;20046;-70
2022/11/24 01:44:41;;;;;;;69.78;33.03;;;0.50;99.90;;;;;;2054580;28;20050;-70
2022/11/24 01:45:43;;;;;;;65.57;32.72;;;0.50;99.90;;;;;;2047536;28;20039;-70
2022/11/24 01:46:48;;;;;;;71.10;32.72;;;0.50;99.90;;;;;;2059162;28;20049;-70
2022/11/24 01:47:48;;;;;;;68.70;31.55;;;0.50;99.90;;;;;;2048179;28;20457;-70
2022/11/24 01:48:59;;;;;;;73.57;33.03;;;0.50;99.90;;;;;;2055490;28;20035;-70
2022/11/24 01:50:00;;;;;;;;;;;0.50;99.90;;;;;;2057021;28;20030;-70
2022/11/24 01:51:15;;;;;;;68.75;29.48;;;0.40;99.90;;;;;;2056355;28;20017;-70
2022/11/24 01:52:21;;;;;;;78.15;31.98;;;0.40;99.90;;;;;;2055612;28;20054;-70
2022/11/24 01:53:23;;;;;;;87.80;33.63;;;0.40;99.90;;;;;;2055961;28;20057;-71
2022/11/24 01:54:30;;;;;;;85.85;34.72;;;0.50;99.90;;;;;;2054387;28;20088;-70
2022/11/24 01:55:35;;;;;;;85.68;33.38;;;0.50;99.90;;;;;;2054016;28;20092;-70
2022/11/24 01:56:39;;;;;;;85.75;33.20;;;0.50;99.90;;;;;;2047574;29;20107;-70
2022/11/24 01:57:57;;;;;;;90.45;33.72;;;0.50;99.90;;;;;;2047476;29;20050;-70
2022/11/24 01:59:01;;;;;;;96.25;33.95;;;0.50;99.90;;;;;;2046326;28;20035;-70
2022/11/24 02:00:06;;;;;;;87.07;33.78;;;0.50;99.90;;;;;;2046883;28;20130;-70
2022/11/24 02:01:14;;;;;;;85.25;32.90;;;0.40;99.90;;;;;;2047626;29;20484;-70
2022/11/24 02:02:16;;;;;;;79.22;33.90;;;0.40;99.90;;;;;;2046859;29;20401;-69
2022/11/24 02:03:21;;;;;;;83.22;32.70;;;0.40;99.90;;;;;;2046953;28;20039;-69
2022/11/24 02:04:28;;;;;;;82.88;33.00;;;0.40;99.90;;;;;;2047334;29;20119;-69
2022/11/24 02:05:40;;;;;;;84.65;32.60;;;0.40;99.90;;;;;;2047523;29;20126;-69
2022/11/24 02:06:42;;;;;;;89.07;34.03;;;0.40;99.90;;;;;;2047454;29;20118;-70
2022/11/24 02:07:44;;;;;;;93.55;33.03;;;0.40;99.90;;;;;;2047311;28;20086;-69
2022/11/24 02:09:02;;;;;;;90.85;33.97;;;0.40;99.90;;;;;;2047454;28;20038;-69
2022/11/24 02:10:07;;;;;;;84.20;32.15;;;0.40;99.90;;;;;;2047528;29;20043;-70
2022/11/24 02:11:08;;;;;;;95.60;33.53;;;0.40;99.90;;;;;;2047516;29;20035;-69
2022/11/24 02:12:09;;;;;;;94.95;34.83;;;0.40;99.90;;;;;;2047574;29;20091;-68
2022/11/24 02:13:10;;;;;;;100.63;34.13;;;0.40;99.90;;;;;;2047591;29;20027;-68
2022/11/24 02:14:15;;;;;;;101.20;34.20;;;0.30;99.90;;;;;;2047303;29;20023;-69
2022/11/24 02:15:17;;;;;;;102.55;34.20;;;0.30;99.90;;;;;;2046808;28;20024;-69
2022/11/24 02:16:18;;;;;;;96.70;33.75;;;0.30;99.90;;;;;;2050950;28;20095;-70
2022/11/24 02:17:18;;;;;;;89.25;33.33;;;0.30;99.90;;;;;;2052058;29;20039;-70
2022/11/24 02:18:19;;;;;;;91.93;33.05;;;0.30;99.90;;;;;;2049907;28;20039;-70
2022/11/24 02:19:36;;;;;;;88.55;32.60;;;0.30;99.90;;;;;;2049572;29;20027;-70
2022/11/24 02:20:37;;;;;;;91.13;32.83;;;0.30;99.90;;;;;;2050027;29;20031;-69
2022/11/24 02:21:38;;;;;;;88.38;33.30;;;0.30;99.90;;;;;;2047948;28;20525;-69
2022/11/24 02:23:02;;;;;;;89.35;33.50;;;0.30;99.90;;;;;;2047556;28;20038;-70
2022/11/24 02:24:25;;;;;;;81.38;32.17;;;0.20;99.90;;;;;;2047313;29;20035;-69
2022/11/24 02:25:44;;;;;;;84.25;31.95;;;0.20;99.90;;;;;;2038935;29;20157;-69
2022/11/24 02:26:47;;;;;;;81.95;31.73;;;0.20;99.90;;;;;;2041596;29;20246;-70
2022/11/24 02:27:48;;;;;;;76.95;31.73;;;0.30;99.90;;;;;;2054844;28;20038;-69
2022/11/24 02:28:49;;;;;;;84.38;31.65;;;0.30;99.90;;;;;;2054082;28;20050;-69
2022/11/24 02:29:50;;;;;;;81.97;32.00;;;0.30;99.90;;;;;;2047494;28;20028;-69
2022/11/24 02:30:51;;;;;;;77.32;31.45;;;0.30;99.90;;;;;;2047366;28;20055;-70
2022/11/24 02:31:58;;;;;;;77.70;30.58;;;0.30;99.90;;;;;;2047292;28;20031;-70
2022/11/24 02:32:59;;;;;;;78.10;30.75;;;0.30;99.90;;;;;;2047546;28;20498;-70
2022/11/24 02:34:00;;;;;;;75.22;30.83;;;0.30;99.90;;;;;;2047073;29;20030;-70
2022/11/24 02:35:03;;;;;;;75.78;30.88;;;0.30;99.90;;;;;;2048680;29;20497;-70
2022/11/24 02:36:04;;;;;;;79.07;31.17;;;0.30;99.90;;;;;;2055041;29;20046;-70
2022/11/24 02:37:05;;;;;;;79.32;31.98;;;0.30;99.90;;;;;;2054954;28;20062;-70
2022/11/24 02:38:05;;;;;;;79.68;30.98;;;0.30;99.90;;;;;;2050514;28;20066;-70
2022/11/24 02:39:11;;;;;;;80.50;31.85;;;0.30;99.90;;;;;;2046633;29;20028;-70
2022/11/24 02:40:23;;;;;;;78.10;31.02;;;0.30;99.90;;;;;;2046840;28;20591;-70
2022/11/24 02:41:25;;;;;;;80.65;32.33;;;0.30;99.90;;;;;;2047436;29;20031;-70
2022/11/24 02:42:29;;;;;;;86.00;33.30;;;0.30;99.90;;;;;;2048038;28;20027;-70
2022/11/24 02:43:36;;;;;;;85.68;32.63;;;0.20;99.90;;;;;;2046954;28;20549;-70
2022/11/24 02:44:42;;;;;;;88.15;32.85;;;0.30;99.90;;;;;;2047319;28;20067;-70
2022/11/24 02:45:43;;;;;;;90.30;33.80;;;0.20;99.90;;;;;;2054612;28;20058;-70
2022/11/24 02:46:44;;;;;;;95.95;34.65;;;0.20;99.90;;;;;;2055735;28;20026;-70
2022/11/24 02:47:45;;;;;;;92.90;33.67;;;0.20;99.90;;;;;;2055496;28;20029;-70
2022/11/24 02:48:45;;;;;;;87.10;32.65;;;0.20;99.90;;;;;;2055282;28;20730;-70
2022/11/24 02:49:46;;;;;;;82.55;33.65;;;0.20;99.90;;;;;;2055713;28;20452;-70
2022/11/24 02:50:47;;;;;;;88.13;33.60;;;0.20;99.90;;;;;;2055313;28;20154;-70
2022/11/24 02:51:47;;;;;;;92.93;35.20;;;0.20;99.90;;;;;;2055393;28;20118;-70
2022/11/24 02:52:48;;;;;;;86.93;33.75;;;0.20;99.90;;;;;;2055648;28;20659;-71
2022/11/24 02:53:48;;;;;;;82.72;32.90;;;0.20;99.90;;;;;;2055186;28;20054;-70
2022/11/24 02:54:49;;;;;;;83.50;33.22;;;0.20;99.90;;;;;;2054524;28;20438;-70
2022/11/24 02:55:50;;;;;;;76.60;31.25;;;0.20;99.90;;;;;;2054807;28;20081;-70
2022/11/24 02:56:51;;;;;;;74.75;31.35;;;0.20;99.90;;;;;;2055534;28;20027;-70
2022/11/24 02:57:52;;;;;;;70.72;30.95;;;0.20;99.90;;;;;;2055528;28;20031;-70
2022/11/24 02:58:52;;;;;;;69.13;30.40;;;0.20;99.90;;;;;;2055086;28;20049;-71
2022/11/24 02:59:53;;;;;;;64.95;29.95;;;0.20;99.90;;;;;;2055356;28;20041;-70
2022/11/24 03:00:54;;;;;;;61.55;29.10;;;0.20;99.90;;;;;;2055366;28;20038;-70
2022/11/24 03:01:54;;;;;;;65.53;29.83;;;0.20;99.90;;;;;;2054628;28;20030;-70
2022/11/24 03:02:55;;;;;;;62.97;29.30;;;0.20;99.90;;;;;;2054798;28;20616;-70
2022/11/24 03:03:55;;;;;;;64.15;28.98;;;0.20;99.90;;;;;;2055076;28;20658;-71
2022/11/24 03:04:56;;;;;;;62.50;28.88;;;0.20;99.90;;;;;;2054955;28;20027;-70
2022/11/24 03:05:57;;;;;;;61.30;30.05;;;0.10;99.90;;;;;;2055641;28;20030;-70
2022/11/24 03:06:57;;;;;;;61.60;29.27;;;0.10;99.90;;;;;;2055566;28;20668;-70
2022/11/24 03:07:58;;;;;;;63.08;28.95;;;0.10;99.90;;;;;;2055301;28;20059;-70
2022/11/24 03:08:59;;;;;;;63.92;28.85;;;0.10;99.90;;;;;;2054491;28;20374;-70
2022/11/24 03:09:59;;;;;;;61.35;29.13;;;0.10;99.90;;;;;;2055028;28;20161;-70
2022/11/24 03:11:02;;;;;;;57.33;27.77;;;0.10;99.90;;;;;;2055212;28;20694;-73
2022/11/24 03:12:02;;;;;;;64.45;28.73;;;0.10;99.90;;;;;;2055275;28;20485;-70
2022/11/24 03:13:03;;;;;;;60.88;28.15;;;0.10;99.90;;;;;;2055281;28;20077;-70
2022/11/24 03:14:04;;;;;;;57.13;27.52;;;0.10;99.90;;;;;;2054253;28;20054;-70
2022/11/24 03:15:06;;;;;;;56.72;27.52;;;0.10;99.90;;;;;;2054423;28;20046;-70
2022/11/24 03:16:09;;;;;;;57.10;27.30;;;0.10;99.90;;;;;;2055023;28;20532;-70
2022/11/24 03:17:10;;;;;;;56.25;27.73;;;0.10;99.90;;;;;;2055063;28;20034;-70
2022/11/24 03:18:11;;;;;;;58.47;28.05;;;0.10;99.90;;;;;;2055155;28;20617;-70
2022/11/24 03:19:11;;;;;;;60.63;28.10;;;0.10;99.90;;;;;;2053766;28;20110;-70
2022/11/24 03:20:12;;;;;;;60.22;28.75;;;0.00;99.90;;;;;;2046335;28;20061;-70
2022/11/24 03:21:13;;;;;;;59.83;27.77;;;0.00;99.90;;;;;;2054413;28;20035;-70
2022/11/24 03:22:14;;;;;;;58.47;26.88;;;0.00;99.90;;;;;;2055069;28;20445;-70
2022/11/24 03:23:14;;;;;;;59.17;28.17;;;0.00;99.90;;;;;;2055057;28;20034;-70
2022/11/24 03:24:15;;;;;;;59.88;27.52;;;0.00;99.90;;;;;;2054921;28;20137;-70
2022/11/24 03:25:16;;;;;;;58.17;27.63;;;0.00;99.90;;;;;;2054221;28;20122;-70
2022/11/24 03:26:19;;;;;;;55.78;27.05;;;0.00;99.90;;;;;;2054511;28;20125;-70
2022/11/24 03:27:19;;;;;;;57.97;27.05;;;0.00;99.90;;;;;;2056267;28;20114;-70
2022/11/24 03:28:20;;;;;;;55.28;26.48;;;0.00;99.90;;;;;;2055909;28;20027;-70
2022/11/24 03:29:21;;;;;;;54.70;25.65;;;0.00;99.90;;;;;;2055528;28;20034;-70
2022/11/24 03:30:22;;;;;;;54.08;25.45;;;0.00;99.90;;;;;;2056640;28;20031;-70
2022/11/24 03:31:23;;;;;;;54.08;25.65;;;0.00;99.90;;;;;;2056752;28;20030;-70
2022/11/24 03:32:24;;;;;;;54.58;25.60;;;0.00;99.90;;;;;;2056742;28;20238;-70
2022/11/24 03:33:25;;;;;;;53.97;25.95;;;0.00;99.90;;;;;;2056551;28;20386;-70
2022/11/24 03:34:25;;;;;;;57.63;26.90;;;0.00;99.90;;;;;;2056455;28;20023;-70
2022/11/24 03:35:26;;;;;;;55.28;26.02;;;-0.10;99.90;;;;;;2056634;28;20121;-70
2022/11/24 03:36:27;;;;;;;50.20;25.02;;;-0.10;99.90;;;;;;2056566;28;20106;-70
2022/11/24 03:37:27;;;;;;;50.53;25.27;;;0.00;99.90;;;;;;2056532;28;20081;-70
2022/11/24 03:38:28;;;;;;;51.03;24.75;;;-0.10;99.90;;;;;;2056596;28;20039;-69
2022/11/24 03:39:29;;;;;;;53.78;25.13;;;-0.10;99.90;;;;;;2057825;28;20031;-69
2022/11/24 03:40:29;;;;;;;51.38;25.00;;;-0.10;99.90;;;;;;2056377;28;20031;-69
2022/11/24 03:41:30;;;;;;;52.13;25.02;;;-0.10;99.90;;;;;;2056487;28;20030;-69
2022/11/24 03:42:31;;;;;;;50.65;24.85;;;-0.10;99.90;;;;;;2064005;28;20053;-69
2022/11/24 03:43:31;;;;;;;50.53;24.92;;;-0.10;99.90;;;;;;2055928;28;20109;-70
2022/11/24 03:44:32;;;;;;;54.70;25.60;;;-0.10;99.90;;;;;;2055769;28;20023;-70
2022/11/24 03:45:33;;;;;;;52.58;24.75;;;-0.10;99.90;;;;;;2056304;28;20031;-70
2022/11/24 03:46:33;;;;;;;53.15;25.17;;;-0.10;99.90;;;;;;2056427;28;20485;-70
2022/11/24 03:47:34;;;;;;;51.72;24.30;;;-0.10;99.90;;;;;;2056452;28;20038;-70
2022/11/24 03:48:35;;;;;;;51.67;24.58;;;-0.10;99.90;;;;;;2056530;28;20030;-69
2022/11/24 03:49:36;;;;;;;52.88;25.40;;;-0.10;99.90;;;;;;2056245;28;20062;-69
2022/11/24 03:50:36;;;;;;;51.35;25.27;;;-0.10;99.90;;;;;;2056625;28;20045;-70
2022/11/24 03:51:37;;;;;;;51.53;24.85;;;-0.10;99.90;;;;;;2064158;28;20081;-70
2022/11/24 03:52:38;;;;;;;53.65;25.42;;;-0.10;99.90;;;;;;2064139;28;20026;-70
2022/11/24 03:53:38;;;;;;;53.20;25.75;;;-0.10;99.90;;;;;;2056163;28;20077;-70
2022/11/24 03:54:41;;;;;;;53.53;25.48;;;-0.10;99.90;;;;;;2056247;28;20034;-70
2022/11/24 03:55:42;;;;;;;55.13;25.70;;;-0.10;99.90;;;;;;2056544;28;20034;-70
2022/11/24 03:56:43;;;;;;;55.45;26.05;;;-0.10;99.90;;;;;;2056479;28;20023;-70
2022/11/24 03:57:43;;;;;;;51.65;25.70;;;-0.10;99.90;;;;;;2056568;28;20473;-70
2022/11/24 03:58:44;;;;;;;59.03;26.98;;;-0.10;99.90;;;;;;2055953;28;20129;-70
2022/11/24 03:59:44;;;;;;;53.63;25.75;;;-0.10;99.90;;;;;;2047475;28;20071;-70
2022/11/24 04:00:48;;;;;;;51.25;26.08;;;-0.10;99.90;;;;;;2055996;28;20517;-73
2022/11/24 04:01:48;;;;;;;53.40;26.05;;;-0.10;99.90;;;;;;2056738;28;20038;-71
2022/11/24 04:02:49;;;;;;;54.30;26.00;;;-0.10;99.90;;;;;;2056265;28;20023;-70
2022/11/24 04:03:50;;;;;;;51.30;25.48;;;-0.10;99.90;;;;;;2047928;28;20047;-70
2022/11/24 04:04:51;;;;;;;55.53;26.80;;;-0.10;99.90;;;;;;2055407;28;20054;-70
2022/11/24 04:05:52;;;;;;;52.78;26.58;;;-0.10;99.90;;;;;;2056273;28;20027;-70
2022/11/24 04:06:52;;;;;;;54.28;26.08;;;-0.10;99.90;;;;;;2056631;28;20066;-71
2022/11/24 04:07:56;;;;;;;56.85;27.00;;;-0.10;99.90;;;;;;2056175;28;20031;-70
2022/11/24 04:08:58;;;;;;;55.28;26.25;;;0.00;99.90;;;;;;2055618;28;20038;-70
2022/11/24 04:09:59;;;;;;;58.28;27.60;;;0.00;99.90;;;;;;2057464;28;20046;-70
2022/11/24 04:11:00;;;;;;;51.80;25.80;;;-0.10;99.90;;;;;;2059118;28;20035;-70
2022/11/24 04:13:24;;;;;;;53.40;25.13;;;-0.10;99.90;;;;;;2058668;28;20042;-70
2022/11/24 04:14:25;;;;;;;52.72;25.67;;;-0.10;99.90;;;;;;2056218;28;20022;-69
2022/11/24 04:15:25;;;;;;;55.15;25.45;;;-0.10;99.90;;;;;;2055972;28;20023;-70
2022/11/24 04:16:26;;;;;;;51.08;25.20;;;-0.10;99.90;;;;;;2047926;28;20039;-69
2022/11/24 04:17:27;;;;;;;48.55;24.63;;;-0.10;99.90;;;;;;2056024;28;20497;-69
2022/11/24 04:18:28;;;;;;;52.97;25.23;;;-0.10;99.90;;;;;;2056570;28;20105;-69
2022/11/24 04:19:29;;;;;;;55.63;26.98;;;-0.10;99.90;;;;;;2056128;28;20540;-69
2022/11/24 04:20:29;;;;;;;54.63;26.58;;;-0.10;99.90;;;;;;2056668;28;20508;-69
2022/11/24 04:21:30;;;;;;;55.20;26.30;;;-0.10;99.90;;;;;;2056373;28;20109;-70
2022/11/24 04:22:32;;;;;;;54.38;26.35;;;-0.10;99.90;;;;;;2056491;28;20034;-70
2022/11/24 04:23:32;;;;;;;55.53;25.73;;;-0.10;99.90;;;;;;2063773;28;20026;-70
2022/11/24 04:24:33;;;;;;;56.08;26.70;;;-0.10;99.90;;;;;;2063685;28;20034;-70
2022/11/24 04:25:34;;;;;;;53.30;25.98;;;-0.10;99.90;;;;;;2056455;28;20101;-71
2022/11/24 04:26:35;;;;;;;56.92;26.67;;;-0.10;99.90;;;;;;2056295;28;20106;-70
2022/11/24 04:27:36;;;;;;;54.75;26.77;;;-0.10;99.90;;;;;;2055593;28;20035;-71
2022/11/24 04:28:37;;;;;;;54.47;25.92;;;-0.10;99.90;;;;;;2055629;28;20077;-71
2022/11/24 04:29:38;;;;;;;51.17;25.13;;;-0.10;99.90;;;;;;2055880;28;20087;-70
2022/11/24 04:30:43;;;;;;;52.38;25.15;;;-0.10;99.90;;;;;;2056362;28;20750;-70
2022/11/24 04:31:43;;;;;;;59.08;26.00;;;-0.10;99.90;;;;;;2063781;28;20014;-70
2022/11/24 04:32:45;;;;;;;53.22;25.90;;;-0.10;99.90;;;;;;2055601;28;20026;-71
2022/11/24 04:33:45;;;;;;;53.08;25.40;;;-0.10;99.90;;;;;;2055681;28;20397;-69
2022/11/24 04:34:46;;;;;;;52.05;24.83;;;-0.10;99.90;;;;;;2055703;28;20026;-71
2022/11/24 04:35:47;;;;;;;52.45;25.42;;;-0.10;99.90;;;;;;2048002;28;20486;-70
2022/11/24 04:36:47;;;;;;;52.70;25.60;;;-0.10;99.90;;;;;;2055390;28;20060;-71
2022/11/24 04:37:48;;;;;;;50.33;24.25;;;-0.10;99.90;;;;;;2055540;28;20050;-71
2022/11/24 04:38:51;;;;;;;50.90;24.55;;;-0.10;99.90;;;;;;2055137;28;20035;-69
2022/11/24 04:39:53;;;;;;;57.75;26.17;;;-0.10;99.90;;;;;;2056140;28;20131;-69
2022/11/24 04:40:54;;;;;;;56.83;27.38;;;0.00;99.90;;;;;;2056071;28;20497;-70
2022/11/24 04:41:55;;;;;;;53.33;26.30;;;0.00;99.90;;;;;;2063677;28;20074;-69
2022/11/24 04:42:56;;;;;;;53.05;26.67;;;0.00;99.90;;;;;;2063531;28;20046;-69
2022/11/24 04:43:56;;;;;;;55.83;26.63;;;0.00;99.90;;;;;;2055551;28;20475;-70
2022/11/24 04:44:57;;;;;;;53.22;26.88;;;0.00;99.90;;;;;;2055342;28;20027;-70
2022/11/24 04:46:01;;;;;;;54.08;26.17;;;0.00;99.90;;;;;;2063523;28;20541;-69
2022/11/24 04:47:01;;;;;;;56.17;27.73;;;0.00;99.90;;;;;;2063318;28;20035;-70
2022/11/24 04:48:03;;;;;;;58.28;27.10;;;0.00;99.90;;;;;;2063634;28;20037;-69
2022/11/24 04:49:04;;;;;;;60.75;28.13;;;0.00;99.90;;;;;;2062984;28;20058;-69
2022/11/24 04:50:06;;;;;;;59.53;28.23;;;0.10;99.90;;;;;;2055472;28;20811;-70
2022/11/24 04:51:07;;;;;;;57.63;28.08;;;0.10;99.90;;;;;;2055435;28;20038;-71
2022/11/24 04:52:07;;;;;;;59.38;28.20;;;0.10;99.90;;;;;;2056152;28;20061;-71
2022/11/24 04:53:10;;;;;;;62.92;28.67;;;0.10;99.90;;;;;;2056157;28;20309;-71
2022/11/24 04:54:12;;;;;;;57.47;28.05;;;0.20;99.90;;;;;;2055448;28;20101;-71
2022/11/24 04:55:13;;;;;;;60.28;28.67;;;0.20;99.90;;;;;;2056151;28;20042;-70
2022/11/24 04:56:13;;;;;;;58.40;28.42;;;0.20;99.90;;;;;;2055364;28;20114;-71
2022/11/24 04:57:23;;;;;;;59.80;28.08;;;0.20;99.90;;;;;;2055526;28;20031;-71
2022/11/24 04:58:23;;;;;;;56.85;27.77;;;0.20;99.90;;;;;;2056142;28;20054;-69
2022/11/24 04:59:24;;;;;;;58.28;28.02;;;0.30;99.90;;;;;;2054928;28;20042;-70
2022/11/24 05:00:25;;;;;;;58.97;28.40;;;0.30;99.90;;;;;;2055653;28;20034;-69
2022/11/24 05:01:26;;;;;;;60.25;29.00;;;0.20;99.90;;;;;;2056229;28;20110;-69
2022/11/24 05:02:27;;;;;;;60.40;28.77;;;0.20;99.90;;;;;;2056409;28;20162;-68
2022/11/24 05:03:27;;;;;;;59.15;28.08;;;0.30;99.90;;;;;;2058009;28;20050;-72
2022/11/24 05:04:28;;;;;;;57.03;27.80;;;0.30;99.90;;;;;;2057256;28;20034;-71
2022/11/24 05:05:29;;;;;;;55.78;28.10;;;0.30;99.90;;;;;;2061719;28;20023;-74
2022/11/24 05:06:30;;;;;;;61.85;29.58;;;0.30;99.90;;;;;;2061340;28;20031;-73
2022/11/24 05:07:31;;;;;;;62.13;29.08;;;0.40;99.90;;;;;;2060764;28;20401;-74
2022/11/24 05:08:31;;;;;;;61.35;28.60;;;0.40;99.90;;;;;;2061521;28;20039;-72
2022/11/24 05:09:32;;;;;;;69.15;30.25;;;0.40;99.90;;;;;;2059626;28;20062;-72
2022/11/24 05:10:36;;;;;;;64.82;30.52;;;0.40;99.90;;;;;;2056479;28;20148;-71
2022/11/24 05:11:45;;;;;;;63.95;28.80;;;0.40;99.90;;;;;;2055687;28;20394;-74
2022/11/24 05:12:58;;;;;;;66.55;30.13;;;0.40;99.90;;;;;;2056083;28;20054;-72
2022/11/24 05:13:59;;;;;;;59.70;27.92;;;0.50;99.90;;;;;;2056172;28;20062;-71
2022/11/24 05:15:02;;;;;;;66.10;30.13;;;0.50;99.90;;;;;;2056333;28;20077;-72
2022/11/24 05:16:03;;;;;;;65.78;31.83;;;0.50;99.90;;;;;;2056290;28;20027;-72
2022/11/24 05:17:07;;;;;;;64.95;31.38;;;0.50;99.90;;;;;;2056302;28;20378;-72
2022/11/24 05:18:11;;;;;;;66.82;30.13;;;0.50;99.90;;;;;;2056129;28;20027;-73
2022/11/24 05:19:12;;;;;;;62.85;29.20;;;0.60;99.90;;;;;;2054969;28;20035;-72
2022/11/24 05:20:12;;;;;;;59.78;28.58;;;0.60;99.90;;;;;;2055331;28;20039;-72